Airfield :
LOGIN :

Register | Disclaimer

   EN    FR    IT 

 










Legend :    VFR   Marginal VFR   IFR   Intensive IFR   Very Intensive IFR
Visi :
Ceiling :
>= 8 km
>= 3000ft
5 to 8 km
1000 to 3000 ft
1500m to 5 km
500 to 1000 ft
800 to 1500m
200 to 500 ft
< 800m
< 200 ft
Symbols :   Thunderstorms  Fog  Heavy snow  Heavy precipitations  Wind > 20 kt
SIGMETs :     Misc.  Thunderstorms  Icing  Turbulence  Mountain Waves  Volcanic Ashes






- Airport Elevation : 1895 ft


LSMM - Meiringen

CURRENT METAR :
  • 260820Z 31011KT 280V340 9999 SCT020 BKN040 M00/M04 Q1021 RMK BLU

EXPIRED METARs :
  • 260750Z 31011KT 270V330 9999 -SHRASN FEW040 BKN047 BKN055 M00/M04 Q1021 RMK BLU
  • 260720Z 31012KT 260V340 9999 -SN FEW042 OVC057 M00/M04 Q1020 RMK BLU
  • 260650Z 30009KT 250V010 9999 -RA FEW021 BKN042 OVC049 M00/M04 Q1020 RMK BLU
  • 260620Z VRB01KT 9999 SCT022 BKN058 BKN076 M02/M03 Q1019 RMK BLU
  • 260550Z 09002KT 9999 FEW019 SCT022 BKN069 M03/M03 Q1019 RMK BLU

Expired Forecast.



MET'MAP, your aeronautical weather chart ! - Copyright ORBIFLY December 2007 - Disclaimer

ORBIFLY MET'MAP TEAM :

Programming & Development : Alexandra Zaïnal
Concept & original design : Baudouin d'Aumeries
Assistance for programming : Marc-Olivier Méhu
Technical & hardware support : Manuel Goepfert

Contact : metmap@orbifly.com




SOURCES & CREDITS :

   NOAA